createdAt,value
2023-02-19T00:00:39.033Z,61.70
2023-02-19T00:03:10.172Z,53.73
2023-02-19T00:05:41.142Z,52.53
2023-02-19T00:08:12.061Z,51.88
2023-02-19T00:10:43.099Z,46.63
2023-02-19T00:13:14.231Z,45.55
2023-02-19T00:15:45.222Z,47.95
2023-02-19T00:18:16.220Z,46.58
2023-02-19T00:20:47.143Z,43.48
2023-02-19T00:23:18.073Z,41.73
2023-02-19T00:25:49.022Z,46.75
2023-02-19T00:28:20.723Z,44.40
2023-02-19T00:30:52.231Z,39.53
2023-02-19T00:33:23.291Z,45.10
2023-02-19T00:35:54.320Z,43.63
2023-02-19T00:38:25.260Z,40.83
2023-02-19T00:40:56.210Z,40.10
2023-02-19T00:43:27.251Z,42.00
2023-02-19T00:45:58.204Z,39.00
2023-02-19T00:48:29.203Z,41.40
2023-02-19T00:51:00.201Z,34.10
2023-02-19T00:53:31.176Z,33.92
2023-02-19T00:56:02.104Z,31.80
2023-02-19T00:58:33.092Z,29.18
2023-02-19T01:01:04.395Z,27.98
2023-02-19T01:03:35.914Z,25.88
2023-02-19T01:06:07.984Z,25.92
2023-02-19T01:08:39.300Z,26.00
2023-02-19T01:11:11.667Z,25.35
2023-02-19T01:13:43.480Z,24.77
2023-02-19T01:16:22.966Z,24.30
2023-02-19T01:18:54.023Z,24.82
2023-02-19T01:21:27.495Z,23.80
2023-02-19T01:23:59.173Z,25.02
2023-02-19T01:26:34.890Z,24.95
2023-02-19T01:29:12.139Z,25.43
2023-02-19T01:31:38.899Z,26.57
2023-02-19T01:34:11.034Z,25.37
2023-02-19T01:36:42.027Z,25.75
2023-02-19T01:39:13.866Z,25.15
2023-02-19T01:41:56.507Z,25.62
2023-02-19T01:45:13.275Z,24.80
2023-02-19T01:47:27.267Z,22.20
2023-02-19T01:49:59.875Z,20.92
2023-02-19T01:52:40.429Z,19.32
2023-02-19T01:55:14.047Z,18.00
2023-02-19T01:57:51.874Z,17.70
2023-02-19T02:00:24.334Z,17.98
2023-02-19T02:02:57.324Z,16.60
2023-02-19T02:05:48.529Z,18.40
2023-02-19T02:08:38.670Z,16.65
2023-02-19T02:11:21.015Z,18.25
2023-02-19T02:13:52.595Z,17.30
2023-02-19T02:16:34.811Z,17.20
2023-02-19T02:19:14.097Z,17.40
2023-02-19T02:21:53.336Z,16.70
2023-02-19T02:24:32.567Z,16.52
2023-02-19T02:27:32.987Z,16.67
2023-02-19T02:30:28.361Z,16.75
2023-02-19T02:33:25.818Z,16.30
2023-02-19T02:35:59.206Z,15.80
2023-02-19T02:38:32.360Z,16.45
2023-02-19T02:41:06.508Z,16.45
2023-02-19T02:43:36.695Z,16.25
2023-02-19T02:46:07.662Z,15.95
2023-02-19T02:48:43.784Z,16.85
2023-02-19T02:51:23.124Z,18.80
2023-02-19T02:54:19.785Z,18.12
2023-02-19T02:56:52.367Z,17.98
2023-02-19T02:59:25.978Z,18.12
2023-02-19T03:02:15.404Z,18.00
2023-02-19T03:05:12.293Z,18.87
2023-02-19T03:08:02.357Z,19.50
2023-02-19T03:10:38.658Z,20.02
2023-02-19T03:13:29.820Z,20.12
2023-02-19T03:16:04.934Z,20.27
2023-02-19T03:18:55.774Z,21.37
2023-02-19T03:21:29.174Z,20.75
2023-02-19T03:24:19.368Z,21.60
2023-02-19T03:26:53.861Z,20.10
2023-02-19T03:29:29.460Z,19.48
2023-02-19T03:32:12.685Z,19.25
2023-02-19T03:34:44.033Z,18.35
2023-02-19T03:37:27.890Z,19.15
2023-02-19T03:40:00.683Z,18.50
2023-02-19T03:42:46.931Z,18.48
2023-02-19T03:45:26.801Z,17.62
2023-02-19T03:48:09.263Z,18.15
2023-02-19T03:50:54.788Z,18.65
2023-02-19T03:53:28.165Z,18.50
2023-02-19T03:56:32.424Z,19.67
2023-02-19T03:59:17.956Z,19.27
2023-02-19T04:01:51.436Z,18.85
2023-02-19T04:04:36.165Z,18.70
2023-02-19T04:07:07.404Z,19.27
2023-02-19T04:09:40.987Z,17.77
2023-02-19T04:12:13.786Z,16.67
2023-02-19T04:14:47.101Z,16.65
2023-02-19T04:17:23.690Z,16.45
2023-02-19T04:19:57.292Z,16.00
2023-02-19T04:22:28.901Z,15.53
2023-02-19T04:25:00.169Z,16.07
2023-02-19T04:27:32.154Z,15.80
2023-02-19T04:30:08.830Z,15.32
2023-02-19T04:35:10.228Z,15.40
2023-02-19T04:37:41.487Z,14.85
2023-02-19T04:40:13.615Z,15.23
2023-02-19T04:42:44.710Z,14.10
2023-02-19T04:45:16.297Z,13.90
2023-02-19T04:47:47.713Z,14.38
2023-02-19T04:50:23.833Z,14.30
2023-02-19T04:52:55.051Z,15.15
2023-02-19T04:55:26.628Z,13.25
2023-02-19T04:57:57.832Z,14.25
2023-02-19T05:00:33.604Z,13.48
2023-02-19T05:03:05.036Z,13.97
2023-02-19T05:05:39.660Z,13.83
2023-02-19T05:08:10.499Z,14.45
2023-02-19T05:10:41.832Z,15.03
2023-02-19T05:13:12.901Z,13.68
2023-02-19T05:15:45.346Z,13.95
2023-02-19T05:18:19.745Z,14.18
2023-02-19T05:20:52.860Z,14.25
2023-02-19T05:23:24.101Z,15.53
2023-02-19T05:25:55.532Z,14.98
2023-02-19T05:28:30.599Z,14.90
2023-02-19T05:31:09.042Z,14.68
2023-02-19T05:33:38.428Z,14.78
2023-02-19T05:36:13.273Z,14.85
2023-02-19T05:38:47.042Z,14.55
2023-02-19T05:41:20.422Z,14.07
2023-02-19T05:43:52.737Z,13.60
2023-02-19T05:46:26.698Z,14.10
2023-02-19T05:48:57.986Z,14.35
2023-02-19T05:51:30.121Z,14.15
2023-02-19T05:54:02.062Z,14.55
2023-02-19T05:56:42.442Z,15.32
2023-02-19T05:59:24.572Z,14.25
2023-02-19T06:02:03.606Z,14.58
2023-02-19T06:04:34.740Z,14.18
2023-02-19T06:07:09.780Z,13.22
2023-02-19T06:10:10.830Z,14.00
2023-02-19T06:12:21.685Z,14.55
2023-02-19T06:14:52.908Z,13.98
2023-02-19T06:17:24.759Z,13.48
2023-02-19T06:19:56.136Z,13.83
2023-02-19T06:22:34.565Z,14.25
2023-02-19T06:25:05.873Z,14.33
2023-02-19T06:27:38.619Z,13.90
2023-02-19T06:30:11.753Z,13.18
2023-02-19T06:32:42.805Z,13.50
2023-02-19T06:35:14.248Z,13.62
2023-02-19T06:37:45.184Z,13.28
2023-02-19T06:40:16.317Z,13.68
2023-02-19T06:42:48.986Z,13.48
2023-02-19T06:45:20.162Z,13.05
2023-02-19T06:47:55.450Z,13.62
2023-02-19T06:50:26.555Z,13.40
2023-02-19T06:52:57.514Z,12.73
2023-02-19T06:55:28.606Z,12.80
2023-02-19T06:57:59.813Z,12.37
2023-02-19T07:00:30.898Z,13.32
2023-02-19T07:03:03.875Z,13.18
2023-02-19T07:05:34.455Z,12.40
2023-02-19T07:08:05.826Z,13.20
2023-02-19T07:10:36.942Z,13.40
2023-02-19T07:13:08.191Z,13.13
2023-02-19T07:15:39.348Z,12.07
2023-02-19T07:18:11.715Z,12.53
2023-02-19T07:20:42.981Z,12.07
2023-02-19T07:23:14.466Z,12.28
2023-02-19T07:25:45.959Z,11.65
2023-02-19T07:28:17.503Z,12.23
2023-02-19T07:30:49.177Z,12.47
2023-02-19T07:33:20.530Z,12.78
2023-02-19T07:35:52.554Z,12.47
2023-02-19T07:38:24.921Z,12.78
2023-02-19T07:41:00.184Z,12.63
2023-02-19T07:43:33.313Z,12.18
2023-02-19T07:46:12.813Z,12.33
2023-02-19T07:48:46.084Z,12.47
2023-02-19T07:51:20.084Z,11.53
2023-02-19T07:54:12.190Z,11.75
2023-02-19T07:56:43.441Z,11.73
2023-02-19T07:59:15.546Z,11.57
2023-02-19T08:02:03.910Z,11.43
2023-02-19T08:04:34.986Z,12.30
2023-02-19T08:07:06.694Z,11.53
2023-02-19T08:09:37.822Z,11.43
2023-02-19T08:12:27.056Z,11.50
2023-02-19T08:14:59.259Z,11.38
2023-02-19T08:17:31.271Z,11.18
2023-02-19T08:20:02.426Z,11.12
2023-02-19T08:22:33.983Z,10.80
2023-02-19T08:25:11.348Z,11.00
2023-02-19T08:27:42.816Z,12.18
2023-02-19T08:30:14.866Z,11.12
2023-02-19T08:32:46.447Z,11.10
2023-02-19T08:35:17.812Z,10.98
2023-02-19T08:37:48.844Z,11.20
2023-02-19T08:40:20.309Z,11.85
2023-02-19T08:42:51.895Z,10.65
2023-02-19T08:45:24.677Z,10.50
2023-02-19T08:47:55.813Z,10.93
2023-02-19T08:50:33.458Z,10.08
2023-02-19T08:53:05.293Z,10.23
2023-02-19T08:55:36.615Z,10.68
2023-02-19T08:58:08.212Z,10.95
2023-02-19T09:00:39.722Z,11.25
2023-02-19T09:03:11.022Z,11.05
2023-02-19T09:05:42.940Z,11.08
2023-02-19T09:08:14.026Z,12.43
2023-02-19T09:10:45.428Z,10.85
2023-02-19T09:13:17.013Z,11.25
2023-02-19T09:15:48.245Z,11.88
2023-02-19T09:18:21.039Z,10.98
2023-02-19T09:20:52.316Z,10.82
2023-02-19T09:23:23.457Z,11.20
2023-02-19T09:26:02.328Z,10.80
2023-02-19T09:28:34.976Z,10.68
2023-02-19T09:31:10.245Z,11.03
2023-02-19T09:33:43.042Z,10.45
2023-02-19T09:36:16.242Z,10.65
2023-02-19T09:38:49.889Z,9.88
2023-02-19T09:41:32.015Z,10.70
2023-02-19T09:44:05.248Z,10.78
2023-02-19T09:46:50.682Z,10.68
2023-02-19T09:49:26.956Z,11.08
2023-02-19T09:52:12.560Z,10.82
2023-02-19T09:54:45.471Z,10.93
2023-02-19T09:57:26.624Z,10.63
2023-02-19T10:00:18.139Z,10.55
2023-02-19T10:02:49.286Z,10.88
2023-02-19T10:05:20.461Z,11.55
2023-02-19T10:07:54.062Z,13.08
2023-02-19T10:10:37.092Z,13.18
2023-02-19T10:13:25.737Z,12.53
2023-02-19T10:15:59.721Z,11.95
2023-02-19T10:18:33.862Z,12.63
2023-02-19T10:21:06.534Z,11.53
2023-02-19T10:23:40.116Z,10.93
2023-02-19T10:26:16.103Z,11.73
2023-02-19T10:28:47.121Z,10.90
2023-02-19T10:31:28.503Z,11.28
2023-02-19T10:34:02.713Z,11.10
2023-02-19T10:36:41.766Z,11.38
2023-02-19T10:39:29.980Z,11.35
2023-02-19T10:42:05.255Z,10.10
2023-02-19T10:44:38.142Z,10.32
2023-02-19T10:47:09.403Z,11.28
2023-02-19T10:49:44.883Z,10.23
2023-02-19T10:52:33.222Z,11.65
2023-02-19T10:55:24.398Z,11.22
2023-02-19T10:58:06.885Z,10.63
2023-02-19T11:00:32.928Z,10.60
2023-02-19T11:03:25.191Z,10.13
2023-02-19T11:06:07.321Z,10.75
2023-02-19T11:08:49.210Z,10.53
2023-02-19T11:11:32.374Z,10.00
2023-02-19T11:14:06.364Z,10.78
2023-02-19T11:16:45.629Z,9.90
2023-02-19T11:19:34.161Z,9.38
2023-02-19T11:22:05.589Z,9.45
2023-02-19T11:24:44.459Z,8.80
2023-02-19T11:27:24.207Z,9.45
2023-02-19T11:29:55.186Z,9.05
2023-02-19T11:32:28.433Z,8.80
2023-02-19T11:35:23.716Z,9.60
2023-02-19T11:38:01.205Z,8.90
2023-02-19T11:40:36.975Z,9.60
2023-02-19T11:43:32.565Z,8.93
2023-02-19T11:46:17.937Z,7.90
2023-02-19T11:48:59.617Z,8.35
2023-02-19T11:51:52.735Z,7.42
2023-02-19T11:54:47.152Z,7.37
2023-02-19T11:57:26.792Z,6.65
2023-02-19T12:00:07.563Z,6.90
2023-02-19T12:02:45.050Z,6.42
2023-02-19T12:05:30.853Z,6.33
2023-02-19T12:08:04.171Z,6.60
2023-02-19T12:10:55.896Z,6.40
2023-02-19T12:13:32.368Z,6.40
2023-02-19T12:16:26.987Z,6.00
2023-02-19T12:19:23.077Z,6.20
2023-02-19T12:22:06.522Z,6.60
2023-02-19T12:25:05.741Z,6.85
2023-02-19T12:27:58.017Z,7.50
2023-02-19T12:30:34.273Z,7.10
2023-02-19T12:33:26.795Z,8.10
2023-02-19T12:36:18.448Z,7.03
2023-02-19T12:39:11.599Z,7.08
2023-02-19T12:41:44.853Z,7.62
2023-02-19T12:44:21.020Z,7.10
2023-02-19T12:46:57.074Z,7.28
2023-02-19T12:49:36.170Z,7.08
2023-02-19T12:52:15.070Z,7.35
2023-02-19T12:54:48.565Z,6.92
2023-02-19T12:57:22.028Z,7.72
2023-02-19T12:59:58.210Z,8.63
2023-02-19T13:02:52.781Z,7.80
2023-02-19T13:05:44.314Z,8.25
2023-02-19T13:08:19.974Z,7.45
2023-02-19T13:10:56.301Z,8.30
2023-02-19T13:13:32.251Z,7.50
2023-02-19T13:16:18.190Z,7.60
2023-02-19T13:18:55.794Z,7.53
2023-02-19T13:21:45.995Z,7.42
2023-02-19T13:24:38.412Z,7.80
2023-02-19T13:27:18.552Z,7.67
2023-02-19T13:30:13.144Z,7.75
2023-02-19T13:32:55.872Z,7.00
2023-02-19T13:36:10.046Z,7.75
2023-02-19T13:38:28.837Z,7.20
2023-02-19T13:41:02.286Z,7.10
2023-02-19T13:43:43.996Z,7.40
2023-02-19T13:46:19.007Z,6.37
2023-02-19T13:48:50.064Z,7.03
2023-02-19T13:51:23.462Z,6.83
2023-02-19T13:54:02.061Z,6.58
2023-02-19T13:56:38.774Z,6.53
2023-02-19T14:02:01.750Z,6.92
2023-02-19T14:04:44.089Z,6.97
2023-02-19T14:07:17.429Z,7.22
2023-02-19T14:09:51.905Z,7.28
2023-02-19T14:12:27.096Z,7.90
2023-02-19T14:15:05.164Z,7.60
2023-02-19T14:17:41.321Z,7.83
2023-02-19T14:20:38.804Z,7.17
2023-02-19T14:23:17.913Z,8.03
2023-02-19T14:25:56.138Z,8.38
2023-02-19T14:28:35.835Z,8.63
2023-02-19T14:31:11.961Z,8.33
2023-02-19T14:33:51.375Z,9.03
2023-02-19T14:36:51.391Z,9.18
2023-02-19T14:39:30.564Z,10.60
2023-02-19T14:42:04.813Z,10.28
2023-02-19T14:45:04.446Z,10.13
2023-02-19T14:47:36.567Z,10.88
2023-02-19T14:50:12.521Z,11.18
2023-02-19T14:52:48.833Z,12.07
2023-02-19T14:55:31.197Z,12.23
2023-02-19T14:58:11.562Z,12.60
2023-02-19T15:00:44.750Z,12.47
2023-02-19T15:03:33.241Z,10.55
2023-02-19T15:06:13.605Z,9.70
2023-02-19T15:08:52.837Z,8.70
2023-02-19T15:11:28.392Z,8.60
2023-02-19T15:14:05.537Z,8.78
2023-02-19T15:16:39.771Z,8.48
2023-02-19T15:19:12.078Z,8.13
2023-02-19T15:21:49.611Z,8.83
2023-02-19T15:26:56.431Z,8.08
2023-02-19T15:29:32.597Z,7.50
2023-02-19T15:32:08.220Z,7.70
2023-02-19T15:34:39.326Z,7.37
2023-02-19T15:37:12.639Z,7.55
2023-02-19T15:39:59.426Z,7.92
2023-02-19T15:42:32.846Z,7.22
2023-02-19T15:45:13.426Z,7.45
2023-02-19T15:47:58.560Z,7.22
2023-02-19T15:50:35.169Z,7.53
2023-02-19T15:53:14.191Z,7.30
2023-02-19T15:55:50.385Z,7.00
2023-02-19T15:58:46.567Z,7.47
2023-02-19T16:01:42.459Z,7.85
2023-02-19T16:04:15.655Z,7.97
2023-02-19T16:07:00.984Z,7.47
2023-02-19T16:09:34.414Z,7.87
2023-02-19T16:12:07.399Z,7.45
2023-02-19T16:14:39.699Z,7.97
2023-02-19T16:17:15.549Z,7.80
2023-02-19T16:20:03.579Z,7.50
2023-02-19T16:26:52.126Z,8.00
2023-02-19T16:29:28.796Z,7.58
2023-02-19T16:32:07.920Z,8.33
2023-02-19T16:34:53.312Z,8.35
2023-02-19T16:37:45.483Z,8.13
2023-02-19T16:40:38.271Z,9.13
2023-02-19T16:43:19.717Z,7.47
2023-02-19T16:46:20.600Z,8.55
2023-02-19T16:48:54.909Z,8.13
2023-02-19T16:51:34.056Z,8.78
2023-02-19T16:54:11.610Z,8.38
2023-02-19T16:56:46.084Z,8.85
2023-02-19T16:59:16.967Z,8.95
2023-02-19T17:01:47.914Z,9.65
2023-02-19T17:04:18.934Z,8.53
2023-02-19T17:06:50.406Z,9.18
2023-02-19T17:09:21.312Z,8.63
2023-02-19T17:11:52.710Z,9.85
2023-02-19T17:14:23.785Z,8.85
2023-02-19T17:16:54.534Z,9.13
2023-02-19T17:19:25.233Z,9.75
2023-02-19T17:21:56.063Z,10.30
2023-02-19T17:24:26.980Z,10.23
2023-02-19T17:26:57.800Z,9.45
2023-02-19T17:29:29.679Z,9.70
2023-02-19T17:32:00.448Z,9.58
2023-02-19T17:34:31.178Z,9.75
2023-02-19T17:37:02.070Z,10.13
2023-02-19T17:39:32.801Z,9.55
2023-02-19T17:42:03.538Z,10.00
2023-02-19T17:44:34.574Z,10.45
2023-02-19T17:47:05.553Z,9.93
2023-02-19T17:49:37.580Z,10.10
2023-02-19T17:52:11.535Z,10.65
2023-02-19T17:54:41.157Z,10.25
2023-02-19T17:57:11.956Z,10.25
2023-02-19T17:59:42.672Z,10.70
2023-02-19T18:02:13.503Z,10.63
2023-02-19T18:04:44.375Z,10.32
2023-02-19T18:07:18.155Z,11.28
2023-02-19T18:09:51.928Z,9.98
2023-02-19T18:12:22.747Z,10.15
2023-02-19T18:14:55.462Z,10.00
2023-02-19T18:17:27.366Z,10.60
2023-02-19T18:19:58.952Z,10.23
2023-02-19T18:22:29.756Z,10.30
2023-02-19T18:25:01.746Z,11.40
2023-02-19T18:27:32.560Z,10.53
2023-02-19T18:30:03.998Z,10.28
2023-02-19T18:32:34.868Z,10.80
2023-02-19T18:35:09.231Z,11.60
2023-02-19T18:37:40.156Z,11.95
2023-02-19T18:40:13.385Z,11.25
2023-02-19T18:42:44.406Z,11.00
2023-02-19T18:45:15.449Z,11.45
2023-02-19T18:47:50.576Z,11.65
2023-02-19T18:50:23.011Z,12.00
2023-02-19T18:52:53.723Z,10.40
2023-02-19T18:55:24.538Z,11.70
2023-02-19T18:57:55.261Z,11.65
2023-02-19T19:00:27.842Z,11.18
2023-02-19T19:03:00.552Z,11.73
2023-02-19T19:05:33.008Z,11.80
2023-02-19T19:08:03.799Z,11.97
2023-02-19T19:10:34.526Z,11.20
2023-02-19T19:13:05.445Z,12.33
2023-02-19T19:15:36.535Z,12.10
2023-02-19T19:18:07.969Z,11.68
2023-02-19T19:20:38.648Z,11.03
2023-02-19T19:23:09.419Z,12.13
2023-02-19T19:25:40.748Z,11.80
2023-02-19T19:28:11.539Z,12.95
2023-02-19T19:30:43.668Z,12.15
2023-02-19T19:33:14.716Z,12.13
2023-02-19T19:35:45.516Z,11.50
2023-02-19T19:38:16.340Z,12.20
2023-02-19T19:40:47.236Z,12.28
2023-02-19T19:43:18.246Z,12.40
2023-02-19T19:45:49.054Z,12.58
2023-02-19T19:48:19.866Z,12.25
2023-02-19T19:50:50.898Z,12.75
2023-02-19T19:53:22.127Z,12.53
2023-02-19T19:55:52.990Z,11.85
2023-02-19T19:58:25.206Z,12.35
2023-02-19T20:00:56.224Z,11.55
2023-02-19T20:03:27.152Z,12.90
2023-02-19T20:05:58.495Z,13.00
2023-02-19T20:08:29.290Z,13.72
2023-02-19T20:11:00.116Z,12.70
2023-02-19T20:13:31.604Z,13.08
2023-02-19T20:16:02.501Z,12.95
2023-02-19T20:18:33.240Z,11.90
2023-02-19T20:21:04.711Z,12.98
2023-02-19T20:23:35.503Z,13.43
2023-02-19T20:26:06.526Z,13.45
2023-02-19T20:28:37.325Z,13.38
2023-02-19T20:31:12.253Z,12.93
2023-02-19T20:33:43.346Z,13.35
2023-02-19T20:36:14.151Z,13.20
2023-02-19T20:38:45.038Z,13.28
2023-02-19T20:41:16.043Z,13.93
2023-02-19T20:43:46.855Z,13.40
2023-02-19T20:46:17.569Z,13.55
2023-02-19T20:48:49.900Z,13.85
2023-02-19T20:51:20.672Z,13.50
2023-02-19T20:53:51.535Z,14.13
2023-02-19T20:56:22.546Z,13.22
2023-02-19T20:58:54.059Z,13.80
2023-02-19T21:01:29.299Z,13.43
2023-02-19T21:04:00.477Z,13.93
2023-02-19T21:06:31.393Z,14.40
2023-02-19T21:09:02.374Z,14.30
2023-02-19T21:11:33.316Z,14.75
2023-02-19T21:14:04.219Z,14.90
2023-02-19T21:16:35.427Z,14.95
2023-02-19T21:19:06.338Z,14.10
2023-02-19T21:21:37.034Z,14.23
2023-02-19T21:24:08.415Z,14.93
2023-02-19T21:26:40.995Z,14.80
2023-02-19T21:31:30.021Z,14.75
2023-02-19T21:31:57.073Z,15.88
2023-02-19T21:34:30.247Z,16.50
2023-02-19T21:37:01.024Z,16.85
2023-02-19T21:39:33.460Z,17.02
2023-02-19T21:42:05.016Z,17.80
2023-02-19T21:44:36.017Z,17.48
2023-02-19T21:47:06.930Z,17.02
2023-02-19T21:49:37.735Z,16.93
2023-02-19T21:52:08.575Z,15.93
2023-02-19T21:54:39.505Z,16.67
2023-02-19T21:57:10.533Z,16.52
2023-02-19T21:59:41.430Z,17.40
2023-02-19T22:02:12.658Z,17.30
2023-02-19T22:04:43.341Z,18.15
2023-02-19T22:07:14.058Z,17.77
2023-02-19T22:09:44.899Z,17.52
2023-02-19T22:12:15.716Z,16.65
2023-02-19T22:14:46.517Z,16.95
2023-02-19T22:17:17.427Z,16.37
2023-02-19T22:19:48.340Z,17.57
2023-02-19T22:22:19.263Z,18.20
2023-02-19T22:24:50.084Z,18.77
2023-02-19T22:27:20.769Z,18.95
2023-02-19T22:29:51.669Z,18.67
2023-02-19T22:32:22.607Z,19.10
2023-02-19T22:34:53.448Z,18.25
2023-02-19T22:37:24.242Z,19.92
2023-02-19T22:39:55.034Z,18.50
2023-02-19T22:42:26.549Z,20.65
2023-02-19T22:45:01.383Z,19.87
2023-02-19T22:47:32.323Z,19.75
2023-02-19T22:50:03.317Z,19.67
2023-02-19T22:52:34.021Z,18.45
2023-02-19T22:55:04.912Z,18.90
2023-02-19T22:57:36.880Z,18.55
2023-02-19T23:00:09.452Z,20.05
2023-02-19T23:02:40.305Z,25.40
2023-02-19T23:05:11.881Z,24.70
2023-02-19T23:07:47.050Z,23.22
2023-02-19T23:10:18.164Z,22.20
2023-02-19T23:12:49.149Z,22.50
2023-02-19T23:15:20.153Z,21.48
2023-02-19T23:17:50.854Z,20.68
2023-02-19T23:20:21.781Z,20.85
2023-02-19T23:22:52.578Z,20.30
2023-02-19T23:25:23.455Z,20.80
2023-02-19T23:27:54.271Z,19.45
2023-02-19T23:30:25.421Z,21.55
2023-02-19T23:32:56.227Z,20.88
2023-02-19T23:35:27.032Z,21.40
2023-02-19T23:37:57.775Z,20.57
2023-02-19T23:40:28.474Z,19.15
2023-02-19T23:42:59.292Z,19.98
2023-02-19T23:45:31.043Z,20.43
2023-02-19T23:48:01.930Z,19.10
2023-02-19T23:50:32.636Z,19.75
2023-02-19T23:53:03.843Z,21.07
2023-02-19T23:55:34.624Z,20.25
2023-02-19T23:58:05.958Z,20.62
